createdAt,value
2022-12-05T00:01:13.336Z,58.91
2022-12-05T00:03:40.134Z,58.85
2022-12-05T00:06:07.421Z,58.68
2022-12-05T00:08:34.144Z,59.11
2022-12-05T00:11:01.133Z,59.08
2022-12-05T00:13:28.178Z,58.88
2022-12-05T00:15:55.212Z,58.94
2022-12-05T00:18:21.961Z,59.20
2022-12-05T00:20:49.286Z,59.24
2022-12-05T00:23:16.078Z,58.64
2022-12-05T00:25:43.137Z,58.75
2022-12-05T00:28:09.829Z,58.75
2022-12-05T00:30:40.409Z,59.08
2022-12-05T00:33:07.145Z,58.54
2022-12-05T00:35:34.349Z,58.88
2022-12-05T00:38:01.097Z,59.10
2022-12-05T00:40:28.143Z,58.82
2022-12-05T00:42:54.861Z,58.95
2022-12-05T00:45:22.114Z,58.74
2022-12-05T00:47:48.800Z,58.84
2022-12-05T00:50:15.776Z,58.78
2022-12-05T00:52:42.544Z,58.88
2022-12-05T00:55:09.601Z,58.87
2022-12-05T00:57:36.331Z,58.44
2022-12-05T01:00:05.255Z,58.60
2022-12-05T01:02:32.004Z,58.62
2022-12-05T01:04:59.085Z,58.90
2022-12-05T01:07:25.804Z,58.29
2022-12-05T01:09:52.790Z,58.23
2022-12-05T01:12:19.524Z,58.64
2022-12-05T01:14:46.626Z,58.43
2022-12-05T01:17:13.364Z,58.68
2022-12-05T01:19:40.355Z,58.59
2022-12-05T01:22:07.083Z,58.10
2022-12-05T01:24:34.099Z,58.36
2022-12-05T01:27:00.857Z,58.18
2022-12-05T01:29:27.992Z,58.15
2022-12-05T01:31:54.928Z,58.23
2022-12-05T01:34:22.167Z,57.91
2022-12-05T01:36:48.951Z,58.02
2022-12-05T01:39:16.379Z,58.21
2022-12-05T01:41:45.424Z,58.06
2022-12-05T01:44:15.236Z,58.08
2022-12-05T01:46:51.227Z,57.97
2022-12-05T01:49:21.035Z,58.13
2022-12-05T01:51:49.296Z,58.33
2022-12-05T01:54:17.000Z,58.49
2022-12-05T01:56:45.873Z,58.17
2022-12-05T01:59:12.953Z,58.07
2022-12-05T02:01:39.732Z,57.89
2022-12-05T02:04:06.831Z,58.23
2022-12-05T02:06:33.795Z,58.09
2022-12-05T02:09:00.928Z,58.24
2022-12-05T02:11:28.811Z,58.15
2022-12-05T02:14:18.139Z,58.24
2022-12-05T02:17:01.373Z,58.05
2022-12-05T02:19:35.170Z,58.39
2022-12-05T02:22:28.785Z,58.07
2022-12-05T02:24:55.826Z,58.03
2022-12-05T02:27:45.722Z,58.19
2022-12-05T02:30:15.728Z,58.40
2022-12-05T02:32:57.707Z,57.89
2022-12-05T02:35:43.126Z,58.29
2022-12-05T02:38:13.142Z,58.48
2022-12-05T02:40:58.852Z,58.20
2022-12-05T02:43:45.850Z,58.54
2022-12-05T02:46:15.627Z,58.59
2022-12-05T02:48:42.579Z,58.68
2022-12-05T02:51:09.596Z,58.77
2022-12-05T02:53:36.781Z,58.42
2022-12-05T02:56:04.126Z,58.40
2022-12-05T02:58:35.505Z,58.56
2022-12-05T03:01:04.289Z,58.86
2022-12-05T03:03:31.109Z,58.82
2022-12-05T03:06:14.348Z,59.13
2022-12-05T03:08:54.568Z,59.13
2022-12-05T03:11:21.638Z,58.95
2022-12-05T03:13:53.211Z,59.22
2022-12-05T03:16:23.874Z,58.93
2022-12-05T03:18:54.177Z,59.16
2022-12-05T03:22:01.736Z,58.91
2022-12-05T03:24:28.484Z,59.30
2022-12-05T03:27:07.965Z,58.63
2022-12-05T03:29:46.237Z,58.63
2022-12-05T03:32:19.281Z,58.78
2022-12-05T03:35:12.140Z,58.52
2022-12-05T03:37:52.056Z,58.52
2022-12-05T03:40:42.119Z,58.29
2022-12-05T03:43:42.925Z,58.29
2022-12-05T03:46:27.909Z,58.12
2022-12-05T03:48:59.589Z,58.49
2022-12-05T03:51:28.796Z,58.32
2022-12-05T03:53:59.646Z,58.13
2022-12-05T03:56:37.105Z,58.22
2022-12-05T03:59:22.820Z,58.41
2022-12-05T04:01:49.909Z,58.26
2022-12-05T04:04:29.053Z,58.67
2022-12-05T04:06:56.437Z,58.43
2022-12-05T04:09:26.383Z,58.50
2022-12-05T04:11:59.245Z,58.26
2022-12-05T04:14:30.543Z,58.44
2022-12-05T04:17:06.185Z,58.24
2022-12-05T04:20:09.612Z,58.60
2022-12-05T04:22:36.581Z,58.57
2022-12-05T04:25:23.244Z,58.72
2022-12-05T04:28:21.128Z,58.18
2022-12-05T04:30:54.926Z,58.13
2022-12-05T04:33:50.577Z,58.17
2022-12-05T04:36:20.527Z,58.55
2022-12-05T04:38:59.539Z,59.07
2022-12-05T04:41:34.719Z,58.82
2022-12-05T04:44:03.300Z,58.91
2022-12-05T04:46:30.386Z,58.62
2022-12-05T04:48:58.979Z,58.22
2022-12-05T04:51:27.535Z,58.96
2022-12-05T04:53:56.712Z,58.40
2022-12-05T04:56:25.128Z,59.20
2022-12-05T04:58:51.875Z,58.99
2022-12-05T05:01:30.267Z,58.78
2022-12-05T05:04:06.060Z,58.94
2022-12-05T05:06:33.140Z,58.92
2022-12-05T05:08:59.836Z,59.09
2022-12-05T05:11:31.536Z,58.73
2022-12-05T05:13:58.291Z,58.75
2022-12-05T05:16:29.981Z,58.74
2022-12-05T05:18:56.927Z,59.00
2022-12-05T05:21:23.964Z,58.90
2022-12-05T05:23:50.788Z,58.75
2022-12-05T05:26:18.549Z,58.61
2022-12-05T05:28:45.895Z,58.57
2022-12-05T05:31:13.134Z,58.73
2022-12-05T05:33:39.915Z,58.50
2022-12-05T05:36:08.571Z,58.65
2022-12-05T05:38:45.347Z,58.83
2022-12-05T05:41:16.455Z,59.28
2022-12-05T05:43:43.428Z,58.90
2022-12-05T05:46:10.505Z,58.86
2022-12-05T05:48:37.486Z,58.89
2022-12-05T05:51:05.767Z,59.22
2022-12-05T05:53:32.807Z,59.35
2022-12-05T05:56:07.417Z,59.33
2022-12-05T05:58:34.363Z,59.36
2022-12-05T06:01:09.096Z,59.14
2022-12-05T06:03:36.028Z,59.18
2022-12-05T06:06:05.064Z,59.37
2022-12-05T06:08:32.856Z,59.63
2022-12-05T06:10:59.946Z,59.45
2022-12-05T06:13:26.643Z,59.39
2022-12-05T06:15:53.729Z,59.06
2022-12-05T06:18:20.510Z,58.58
2022-12-05T06:20:57.129Z,58.39
2022-12-05T06:23:25.051Z,58.23
2022-12-05T06:25:53.443Z,58.39
2022-12-05T06:28:20.319Z,58.42
2022-12-05T06:30:47.598Z,58.24
2022-12-05T06:33:14.462Z,58.39
2022-12-05T06:35:41.718Z,58.47
2022-12-05T06:38:08.521Z,58.73
2022-12-05T06:40:35.670Z,58.93
2022-12-05T06:43:02.390Z,59.11
2022-12-05T06:45:29.532Z,59.30
2022-12-05T06:47:56.302Z,59.04
2022-12-05T06:50:23.372Z,58.85
2022-12-05T06:52:50.875Z,59.00
2022-12-05T06:55:17.970Z,58.73
2022-12-05T06:57:45.282Z,58.59
2022-12-05T07:00:34.082Z,58.64
2022-12-05T07:03:00.820Z,58.65
2022-12-05T07:05:27.823Z,58.64
2022-12-05T07:07:54.604Z,58.86
2022-12-05T07:10:21.720Z,58.39
2022-12-05T07:12:48.443Z,58.52
2022-12-05T07:15:15.557Z,58.95
2022-12-05T07:17:42.239Z,58.59
2022-12-05T07:20:10.515Z,58.44
2022-12-05T07:22:37.370Z,58.59
2022-12-05T07:25:04.804Z,58.69
2022-12-05T07:27:31.531Z,58.64
2022-12-05T07:29:58.883Z,58.61
2022-12-05T07:32:25.937Z,58.62
2022-12-05T07:34:55.503Z,58.77
2022-12-05T07:37:22.806Z,58.91
2022-12-05T07:39:50.795Z,58.41
2022-12-05T07:42:17.534Z,58.50
2022-12-05T07:44:44.637Z,58.46
2022-12-05T07:47:11.590Z,58.59
2022-12-05T07:49:38.655Z,58.83
2022-12-05T07:52:05.414Z,58.86
2022-12-05T07:54:33.321Z,59.06
2022-12-05T07:57:00.033Z,58.85
2022-12-05T07:59:27.114Z,58.90
2022-12-05T08:01:54.229Z,58.28
2022-12-05T08:04:21.347Z,58.29
2022-12-05T08:06:48.161Z,58.30
2022-12-05T08:09:15.142Z,58.62
2022-12-05T08:11:41.856Z,58.69
2022-12-05T08:14:09.335Z,58.66
2022-12-05T08:16:36.135Z,58.52
2022-12-05T08:19:06.475Z,58.65
2022-12-05T08:21:33.494Z,58.67
2022-12-05T08:24:00.612Z,58.73
2022-12-05T08:26:28.697Z,58.73
2022-12-05T08:28:57.550Z,58.66
2022-12-05T08:31:24.743Z,58.77
2022-12-05T08:33:57.183Z,58.36
2022-12-05T08:36:25.795Z,58.49
2022-12-05T08:38:59.212Z,58.76
2022-12-05T08:41:28.810Z,58.40
2022-12-05T08:44:00.237Z,58.80
2022-12-05T08:46:27.090Z,58.63
2022-12-05T08:48:54.242Z,58.42
2022-12-05T08:51:21.014Z,58.79
2022-12-05T08:53:48.198Z,58.49
2022-12-05T08:56:15.031Z,59.09
2022-12-05T08:58:42.065Z,58.56
2022-12-05T09:01:16.667Z,58.80
2022-12-05T09:03:47.765Z,58.68
2022-12-05T09:06:19.573Z,58.38
2022-12-05T09:08:46.827Z,58.68
2022-12-05T09:11:18.465Z,58.63
2022-12-05T09:13:46.206Z,58.71
2022-12-05T09:16:18.273Z,58.43
2022-12-05T09:18:45.395Z,58.44
2022-12-05T09:21:13.823Z,58.62
2022-12-05T09:23:40.917Z,58.66
2022-12-05T09:26:08.521Z,58.96
2022-12-05T09:28:35.697Z,58.44
2022-12-05T09:31:04.843Z,58.69
2022-12-05T09:33:32.961Z,58.88
2022-12-05T09:36:02.926Z,58.86
2022-12-05T09:38:30.133Z,58.62
2022-12-05T09:41:11.978Z,58.79
2022-12-05T09:43:53.970Z,58.82
2022-12-05T09:46:49.314Z,58.50
2022-12-05T09:49:16.372Z,58.63
2022-12-05T09:51:44.493Z,59.08
2022-12-05T09:54:11.985Z,59.33
2022-12-05T09:56:38.782Z,59.08
2022-12-05T09:59:05.941Z,58.93
2022-12-05T10:02:04.293Z,58.97
2022-12-05T10:04:31.819Z,58.86
2022-12-05T10:07:26.611Z,58.53
2022-12-05T10:10:17.056Z,59.00
2022-12-05T10:13:08.599Z,58.64
2022-12-05T10:15:43.916Z,58.77
2022-12-05T10:18:20.905Z,58.74
2022-12-05T10:20:59.040Z,58.95
2022-12-05T10:23:56.715Z,58.98
2022-12-05T10:26:22.829Z,59.35
2022-12-05T10:29:00.063Z,58.98
2022-12-05T10:31:29.852Z,59.25
2022-12-05T10:34:17.522Z,58.93
2022-12-05T10:37:15.537Z,58.79
2022-12-05T10:39:42.567Z,58.69
2022-12-05T10:42:13.740Z,59.02
2022-12-05T10:44:40.576Z,58.83
2022-12-05T10:47:08.502Z,58.88
2022-12-05T10:49:35.712Z,58.82
2022-12-05T10:52:02.876Z,58.96
2022-12-05T10:54:30.713Z,58.94
2022-12-05T10:56:57.891Z,58.85
2022-12-05T10:59:26.182Z,58.97
2022-12-05T11:01:56.047Z,59.06
2022-12-05T11:04:25.193Z,58.71
2022-12-05T11:07:02.849Z,58.95
2022-12-05T11:09:33.665Z,59.24
2022-12-05T11:12:23.688Z,58.88
2022-12-05T11:14:58.086Z,59.07
2022-12-05T11:17:35.440Z,59.65
2022-12-05T11:20:03.450Z,59.17
2022-12-05T11:22:34.726Z,59.10
2022-12-05T11:25:01.679Z,59.05
2022-12-05T11:27:32.418Z,59.30
2022-12-05T11:30:19.173Z,59.11
2022-12-05T11:32:46.217Z,58.96
2022-12-05T11:35:12.906Z,59.25
2022-12-05T11:37:45.975Z,59.14
2022-12-05T11:40:38.389Z,58.70
2022-12-05T11:43:14.978Z,58.75
2022-12-05T11:46:26.578Z,58.69
2022-12-05T11:49:00.189Z,58.79
2022-12-05T11:51:26.943Z,58.67
2022-12-05T11:54:02.688Z,58.35
2022-12-05T11:56:39.257Z,58.38
2022-12-05T11:59:15.499Z,58.23
2022-12-05T12:02:20.829Z,58.36
2022-12-05T12:05:17.981Z,58.52
2022-12-05T12:08:24.659Z,58.14
2022-12-05T12:11:10.604Z,58.14
2022-12-05T12:13:48.600Z,57.96
2022-12-05T12:16:21.403Z,57.98
2022-12-05T12:19:04.305Z,58.07
2022-12-05T12:22:18.947Z,58.33
2022-12-05T12:25:03.638Z,58.42
2022-12-05T12:28:01.329Z,58.20
2022-12-05T12:30:37.411Z,58.09
2022-12-05T12:33:29.356Z,58.16
2022-12-05T12:36:08.079Z,57.87
2022-12-05T12:39:12.430Z,57.91
2022-12-05T12:42:03.673Z,57.94
2022-12-05T12:44:50.286Z,58.07
2022-12-05T12:47:29.014Z,57.97
2022-12-05T12:50:22.470Z,57.65
2022-12-05T12:53:14.043Z,58.00
2022-12-05T12:55:50.164Z,57.64
2022-12-05T12:58:38.007Z,57.85
2022-12-05T13:01:31.279Z,57.81
2022-12-05T13:04:22.924Z,57.95
2022-12-05T13:06:54.992Z,57.82
2022-12-05T13:09:35.376Z,57.54
2022-12-05T13:12:08.367Z,57.61
2022-12-05T13:14:35.219Z,57.88
2022-12-05T13:17:02.341Z,57.48
2022-12-05T13:19:37.395Z,57.76
2022-12-05T13:22:04.857Z,57.66
2022-12-05T13:24:31.916Z,57.73
2022-12-05T13:27:00.660Z,57.54
2022-12-05T13:29:39.834Z,57.51
2022-12-05T13:32:07.069Z,57.69
2022-12-05T13:34:48.444Z,57.56
2022-12-05T13:37:47.892Z,57.79
2022-12-05T13:40:40.940Z,57.49
2022-12-05T13:43:08.084Z,57.73
2022-12-05T13:45:34.838Z,57.72
2022-12-05T13:48:18.458Z,57.64
2022-12-05T13:51:02.679Z,57.69
2022-12-05T13:53:42.374Z,57.64
2022-12-05T13:56:15.142Z,57.66
2022-12-05T13:58:54.540Z,57.91
2022-12-05T14:01:27.816Z,57.79
2022-12-05T14:03:57.176Z,57.66
2022-12-05T14:06:40.179Z,57.81
2022-12-05T14:09:19.463Z,57.83
2022-12-05T14:12:10.991Z,58.06
2022-12-05T14:14:56.723Z,57.59
2022-12-05T14:17:30.565Z,57.80
2022-12-05T14:20:00.539Z,57.84
2022-12-05T14:23:09.271Z,57.93
2022-12-05T14:25:50.379Z,57.96
2022-12-05T14:28:47.434Z,58.01
2022-12-05T14:31:38.704Z,58.04
2022-12-05T14:34:05.544Z,57.83
2022-12-05T14:36:33.839Z,58.18
2022-12-05T14:39:00.595Z,57.96
2022-12-05T14:41:32.430Z,58.08
2022-12-05T14:44:01.619Z,58.06
2022-12-05T14:46:32.509Z,57.84
2022-12-05T14:49:13.903Z,57.81
2022-12-05T14:51:44.055Z,57.64
2022-12-05T14:54:13.749Z,57.88
2022-12-05T14:56:52.818Z,57.72
2022-12-05T14:59:34.424Z,57.85
2022-12-05T15:02:02.578Z,58.14
2022-12-05T15:04:43.707Z,57.80
2022-12-05T15:07:13.049Z,57.90
2022-12-05T15:09:58.529Z,57.87
2022-12-05T15:12:32.279Z,58.01
2022-12-05T15:15:24.705Z,57.85
2022-12-05T15:17:53.465Z,58.05
2022-12-05T15:20:23.404Z,58.18
2022-12-05T15:22:50.561Z,58.02
2022-12-05T15:25:25.634Z,57.97
2022-12-05T15:28:00.482Z,58.21
2022-12-05T15:30:27.721Z,58.08
2022-12-05T15:32:59.255Z,58.04
2022-12-05T15:35:27.586Z,58.03
2022-12-05T15:38:00.822Z,57.85
2022-12-05T15:40:37.149Z,58.27
2022-12-05T15:43:29.846Z,58.03
2022-12-05T15:46:08.923Z,58.12
2022-12-05T15:48:36.110Z,57.89
2022-12-05T15:51:03.314Z,57.64
2022-12-05T15:53:40.274Z,57.96
2022-12-05T15:56:10.891Z,57.96
2022-12-05T15:58:44.057Z,58.09
2022-12-05T16:01:24.030Z,57.96
2022-12-05T16:04:04.784Z,57.81
2022-12-05T16:06:32.836Z,58.02
2022-12-05T16:08:59.908Z,57.93
2022-12-05T16:11:26.763Z,57.94
2022-12-05T16:13:58.646Z,57.70
2022-12-05T16:16:28.074Z,57.79
2022-12-05T16:18:56.524Z,57.78
2022-12-05T16:21:39.110Z,57.62
2022-12-05T16:24:08.521Z,57.72
2022-12-05T16:26:39.239Z,57.37
2022-12-05T16:29:08.840Z,57.55
2022-12-05T16:31:35.955Z,58.18
2022-12-05T16:34:07.936Z,58.01
2022-12-05T16:36:34.783Z,58.24
2022-12-05T16:39:04.108Z,57.83
2022-12-05T16:41:37.892Z,57.92
2022-12-05T16:44:13.039Z,59.09
2022-12-05T16:46:43.628Z,58.71
2022-12-05T16:49:17.798Z,58.82
2022-12-05T16:51:45.446Z,58.44
2022-12-05T16:54:12.671Z,58.72
2022-12-05T16:56:39.783Z,58.70
2022-12-05T16:59:07.262Z,58.69
2022-12-05T17:01:38.647Z,58.51
2022-12-05T17:04:09.675Z,58.39
2022-12-05T17:06:36.578Z,58.60
2022-12-05T17:09:03.360Z,58.29
2022-12-05T17:11:31.434Z,58.30
2022-12-05T17:13:58.462Z,58.48
2022-12-05T17:16:26.840Z,58.24
2022-12-05T17:18:53.858Z,58.45
2022-12-05T17:21:29.302Z,58.33
2022-12-05T17:23:56.125Z,58.37
2022-12-05T17:26:23.289Z,58.35
2022-12-05T17:28:50.138Z,58.38
2022-12-05T17:31:19.413Z,58.23
2022-12-05T17:33:46.470Z,58.32
2022-12-05T17:36:14.242Z,58.44
2022-12-05T17:38:41.454Z,58.39
2022-12-05T17:41:09.554Z,58.47
2022-12-05T17:43:36.269Z,58.49
2022-12-05T17:46:03.380Z,58.35
2022-12-05T17:48:30.160Z,58.29
2022-12-05T17:50:59.844Z,58.08
2022-12-05T17:53:26.574Z,58.29
2022-12-05T17:55:53.744Z,58.29
2022-12-05T17:58:20.589Z,58.09
2022-12-05T18:00:48.473Z,58.07
2022-12-05T18:03:17.453Z,58.07
2022-12-05T18:05:45.182Z,58.35
2022-12-05T18:08:12.132Z,58.32
2022-12-05T18:10:43.414Z,58.53
2022-12-05T18:13:10.712Z,58.11
2022-12-05T18:15:42.682Z,58.29
2022-12-05T18:18:13.740Z,58.16
2022-12-05T18:20:40.919Z,58.28
2022-12-05T18:23:07.696Z,58.25
2022-12-05T18:25:34.813Z,58.35
2022-12-05T18:28:01.588Z,58.15
2022-12-05T18:30:28.686Z,58.07
2022-12-05T18:32:55.801Z,58.32
2022-12-05T18:35:40.438Z,58.25
2022-12-05T18:38:08.856Z,58.23
2022-12-05T18:40:35.929Z,58.18
2022-12-05T18:43:02.807Z,58.11
2022-12-05T18:45:29.948Z,58.33
2022-12-05T18:48:09.603Z,58.13
2022-12-05T18:50:43.373Z,58.36
2022-12-05T18:53:10.171Z,58.09
2022-12-05T18:55:58.382Z,58.12
2022-12-05T18:58:24.525Z,58.10
2022-12-05T19:00:51.816Z,58.16
2022-12-05T19:03:18.717Z,58.14
2022-12-05T19:05:46.212Z,58.06
2022-12-05T19:08:13.094Z,58.13
2022-12-05T19:10:40.237Z,58.03
2022-12-05T19:13:07.127Z,57.97
2022-12-05T19:15:34.256Z,58.02
2022-12-05T19:18:01.052Z,58.25
2022-12-05T19:20:28.192Z,58.26
2022-12-05T19:23:00.565Z,58.54
2022-12-05T19:25:31.329Z,58.18
2022-12-05T19:27:58.061Z,58.58
2022-12-05T19:30:25.087Z,58.28
2022-12-05T19:32:51.910Z,58.50
2022-12-05T19:35:19.118Z,58.00
2022-12-05T19:37:45.892Z,58.29
2022-12-05T19:40:13.268Z,58.14
2022-12-05T19:42:40.004Z,58.31
2022-12-05T19:45:10.304Z,58.37
2022-12-05T19:47:37.319Z,58.27
2022-12-05T19:50:04.763Z,58.39
2022-12-05T19:52:31.600Z,58.20
2022-12-05T19:54:58.803Z,58.06
2022-12-05T19:57:29.808Z,58.23
2022-12-05T19:59:58.461Z,58.19
2022-12-05T20:02:25.676Z,58.09
2022-12-05T20:04:52.890Z,58.18
2022-12-05T20:07:19.658Z,58.22
2022-12-05T20:09:46.731Z,58.14
2022-12-05T20:12:13.476Z,58.14
2022-12-05T20:14:40.619Z,57.95
2022-12-05T20:17:07.612Z,58.14
2022-12-05T20:19:34.731Z,57.92
2022-12-05T20:22:01.552Z,57.98
2022-12-05T20:24:28.763Z,58.05
2022-12-05T20:26:55.560Z,58.13
2022-12-05T20:29:22.627Z,57.92
2022-12-05T20:31:49.928Z,58.07
2022-12-05T20:34:17.077Z,57.97
2022-12-05T20:36:43.892Z,58.14
2022-12-05T20:39:13.973Z,58.21
2022-12-05T20:41:40.784Z,58.63
2022-12-05T20:44:08.384Z,60.12
2022-12-05T20:46:35.465Z,58.96
2022-12-05T20:49:02.595Z,59.34
2022-12-05T20:51:30.779Z,59.36
2022-12-05T20:53:58.814Z,60.04
2022-12-05T20:56:28.204Z,59.77
2022-12-05T20:58:56.891Z,60.25
2022-12-05T21:01:24.726Z,60.61
2022-12-05T21:03:52.351Z,60.39
2022-12-05T21:06:20.012Z,60.01
2022-12-05T21:08:47.156Z,60.56
2022-12-05T21:11:14.072Z,61.81
2022-12-05T21:13:41.472Z,60.44
2022-12-05T21:16:13.198Z,60.48
2022-12-05T21:18:40.664Z,60.90
2022-12-05T21:21:13.400Z,60.66
2022-12-05T21:23:41.827Z,60.90
2022-12-05T21:26:11.075Z,61.10
2022-12-05T21:28:38.178Z,60.68
2022-12-05T21:31:11.988Z,61.60
2022-12-05T21:33:39.743Z,60.69
2022-12-05T21:36:07.027Z,61.53
2022-12-05T21:38:34.155Z,60.51
2022-12-05T21:41:01.854Z,61.69
2022-12-05T21:43:29.296Z,61.44
2022-12-05T21:45:56.187Z,61.22
2022-12-05T21:48:24.021Z,61.10
2022-12-05T21:50:50.899Z,61.29
2022-12-05T21:53:18.212Z,61.72
2022-12-05T21:55:45.038Z,61.86
2022-12-05T21:58:12.213Z,61.02
2022-12-05T22:00:39.094Z,60.88
2022-12-05T22:03:06.451Z,61.03
2022-12-05T22:05:33.523Z,61.85
2022-12-05T22:08:06.071Z,61.24
2022-12-05T22:10:36.373Z,61.26
2022-12-05T22:13:03.883Z,61.05
2022-12-05T22:15:31.009Z,60.80
2022-12-05T22:17:58.050Z,61.20
2022-12-05T22:20:24.780Z,61.73
2022-12-05T22:22:51.890Z,61.35
2022-12-05T22:25:18.637Z,61.47
2022-12-05T22:27:45.685Z,61.49
2022-12-05T22:30:12.778Z,61.58
2022-12-05T22:32:40.181Z,61.49
2022-12-05T22:35:07.289Z,61.11
2022-12-05T22:37:34.425Z,61.58
2022-12-05T22:40:01.675Z,61.66
2022-12-05T22:42:29.093Z,61.04
2022-12-05T22:44:55.944Z,61.90
2022-12-05T22:47:23.264Z,61.23
2022-12-05T22:49:50.156Z,62.43
2022-12-05T22:52:17.220Z,61.49
2022-12-05T22:54:43.990Z,61.04
2022-12-05T22:57:11.078Z,61.36
2022-12-05T22:59:38.012Z,61.53
2022-12-05T23:02:05.036Z,61.15
2022-12-05T23:04:31.740Z,61.53
2022-12-05T23:06:58.728Z,61.19
2022-12-05T23:09:25.393Z,62.01
2022-12-05T23:11:52.468Z,61.50
2022-12-05T23:14:19.273Z,62.13
2022-12-05T23:16:46.331Z,60.89
2022-12-05T23:19:13.064Z,61.25
2022-12-05T23:21:40.605Z,61.09
2022-12-05T23:24:11.496Z,61.49
2022-12-05T23:26:40.911Z,61.28
2022-12-05T23:29:07.640Z,61.74
2022-12-05T23:31:34.847Z,61.58
2022-12-05T23:34:03.880Z,61.17
2022-12-05T23:36:32.064Z,61.40
2022-12-05T23:38:58.732Z,62.42
2022-12-05T23:41:26.275Z,61.32
2022-12-05T23:43:53.320Z,61.51
2022-12-05T23:46:21.993Z,62.64
2022-12-05T23:48:48.870Z,61.58
2022-12-05T23:51:20.953Z,61.88
2022-12-05T23:53:48.075Z,61.79
2022-12-05T23:56:17.127Z,62.25
2022-12-05T23:58:43.920Z,61.97
